Time;durP1;ratioP1;P1;durP2;ratioP2;P2;SDS_P1;SDS_P2;PMS_P1;PMS_P2;Temp;Humidity;BMP_temperature;BMP_pressure;BME280_temperature;BME280_humidity;BME280_pressure;Samples;Min_cycle;Max_cycle;Signal;HPM_P1;HPM_P2
2020/12/14 00:00:49;;;;;;;;;;;22.90;44.40;;;;;;1559947;74;1065;-56
2020/12/14 00:02:51;;;;;;;;;;;22.80;44.30;;;;;;1559221;74;723;-58
2020/12/14 00:04:54;;;;;;;;;;;22.90;44.40;;;;;;1585708;74;740;-57
2020/12/14 00:06:55;;;;;;;;;;;22.80;44.30;;;;;;1576264;74;1882;-58
2020/12/14 00:08:57;;;;;;;;;;;22.90;44.30;;;;;;1564799;74;803;-58
2020/12/14 00:10:59;;;;;;;;;;;22.90;44.40;;;;;;1567559;74;1178;-58
2020/12/14 00:13:02;;;;;;;;;;;22.90;44.40;;;;;;1565089;74;725;-58
2020/12/14 00:15:07;;;;;;;;;;;22.90;44.40;;;;;;1568411;74;787;-57
2020/12/14 00:17:08;;;;;;;;;;;22.90;44.40;;;;;;1573185;74;681;-57
2020/12/14 00:19:10;;;;;;;;;;;22.80;44.60;;;;;;1570052;74;743;-58
2020/12/14 00:21:12;;;;;;;;;;;22.80;44.40;;;;;;1574734;74;1141;-58
2020/12/14 00:23:14;;;;;;;;;;;22.80;44.30;;;;;;1556594;75;1212;-57
2020/12/14 00:25:16;;;;;;;;;;;22.80;44.30;;;;;;1579828;74;694;-59
2020/12/14 00:27:18;;;;;;;;;;;22.80;44.20;;;;;;1590705;74;1940;-59
2020/12/14 00:29:20;;;;;;;;;;;22.80;44.20;;;;;;1566860;74;664;-59
2020/12/14 00:31:21;;;;;;;;;;;22.90;44.30;;;;;;1580175;74;1106;-57
2020/12/14 00:33:23;;;;;;;;;;;22.90;44.40;;;;;;1571343;74;664;-57
2020/12/14 00:35:25;;;;;;;;;;;22.80;44.20;;;;;;1574114;74;684;-58
2020/12/14 00:37:27;;;;;;;;;;;22.90;44.40;;;;;;1571464;74;729;-58
2020/12/14 00:39:29;;;;;;;;;;;22.80;44.30;;;;;;1579660;74;720;-58
2020/12/14 00:41:31;;;;;;;;;;;22.90;44.40;;;;;;1578370;74;1144;-57
2020/12/14 00:43:33;;;;;;;;;;;22.80;44.20;;;;;;1577861;74;741;-58
2020/12/14 00:45:34;;;;;;;;;;;22.90;44.40;;;;;;1581916;74;1935;-59
2020/12/14 00:47:36;;;;;;;;;;;22.90;44.50;;;;;;1579136;74;737;-57
2020/12/14 00:49:38;;;;;;;;;;;22.90;44.50;;;;;;1568096;74;729;-56
2020/12/14 00:51:40;;;;;;;;;;;22.90;44.50;;;;;;1568407;74;1086;-58
2020/12/14 00:53:42;;;;;;;;;;;22.90;44.40;;;;;;1579499;74;779;-57
2020/12/14 00:55:44;;;;;;;;;;;22.90;44.40;;;;;;1572884;74;675;-57
2020/12/14 00:57:46;;;;;;;;;;;22.90;44.30;;;;;;1566904;74;587;-58
2020/12/14 00:59:47;;;;;;;;;;;22.80;44.30;;;;;;1568033;74;1150;-59
2020/12/14 01:01:52;;;;;;;;;;;22.80;44.40;;;;;;1571520;74;720;-58
2020/12/14 01:03:55;;;;;;;;;;;22.90;44.30;;;;;;1576984;74;747;-58
2020/12/14 01:05:56;;;;;;;;;;;22.80;44.40;;;;;;1564766;74;1939;-58
2020/12/14 01:07:58;;;;;;;;;;;22.80;44.40;;;;;;1579865;74;785;-57
2020/12/14 01:10:00;;;;;;;;;;;22.90;44.50;;;;;;1578363;74;1195;-57
2020/12/14 01:12:03;;;;;;;;;;;22.90;44.50;;;;;;1573615;74;771;-57
2020/12/14 01:14:05;;;;;;;;;;;22.90;44.40;;;;;;1557284;74;681;-57
2020/12/14 01:16:09;;;;;;;;;;;22.80;44.40;;;;;;1562337;74;783;-58
2020/12/14 01:18:11;;;;;;;;;;;22.80;44.40;;;;;;1563531;74;659;-58
2020/12/14 01:20:14;;;;;;;;;;;22.80;44.40;;;;;;1576122;74;1160;-57
2020/12/14 01:22:16;;;;;;;;;;;22.80;44.40;;;;;;1563393;74;721;-58
2020/12/14 01:24:17;;;;;;;;;;;22.90;44.50;;;;;;1574393;74;723;-57
2020/12/14 01:26:25;;;;;;;;;;;22.80;44.40;;;;;;1580316;74;1929;-58
2020/12/14 01:28:27;;;;;;;;;;;22.90;44.40;;;;;;1577620;74;701;-58
2020/12/14 01:30:29;;;;;;;;;;;22.80;44.30;;;;;;1579157;74;1233;-58
2020/12/14 01:32:31;;;;;;;;;;;22.80;44.30;;;;;;1586013;74;669;-57
2020/12/14 01:34:33;;;;;;;;;;;22.80;44.50;;;;;;1579493;74;672;-57
2020/12/14 01:36:35;;;;;;;;;;;22.80;44.40;;;;;;1597695;74;800;-57
2020/12/14 01:38:36;;;;;;;;;;;22.80;44.40;;;;;;1580903;74;689;-58
2020/12/14 01:40:38;;;;;;;;;;;22.80;44.40;;;;;;1582798;74;1097;-57
2020/12/14 01:42:41;;;;;;;;;;;22.80;44.40;;;;;;1579534;74;721;-58
2020/12/14 01:44:42;;;;;;;;;;;22.80;44.40;;;;;;1583639;74;701;-57
2020/12/14 01:46:45;;;;;;;;;;;22.80;44.40;;;;;;1573666;74;1914;-57
2020/12/14 01:48:47;;;;;;;;;;;22.80;44.50;;;;;;1579778;74;765;-58
2020/12/14 01:50:48;;;;;;;;;;;22.80;44.40;;;;;;1590978;74;1147;-58
2020/12/14 01:52:50;;;;;;;;;;;22.80;44.40;;;;;;1584297;74;737;-58
2020/12/14 01:54:53;;;;;;;;;;;22.80;44.40;;;;;;1594034;74;831;-59
2020/12/14 01:56:55;;;;;;;;;;;22.80;44.40;;;;;;1581856;74;819;-57
2020/12/14 01:58:57;;;;;;;;;;;22.80;44.20;;;;;;1559326;74;706;-57
2020/12/14 02:00:59;;;;;;;;;;;22.80;44.30;;;;;;1560663;74;1104;-58
2020/12/14 02:03:01;;;;;;;;;;;22.80;44.40;;;;;;1561184;74;676;-57
2020/12/14 02:05:03;;;;;;;;;;;22.80;44.30;;;;;;1564768;74;797;-58
2020/12/14 02:07:05;;;;;;;;;;;22.80;44.30;;;;;;1567033;74;1928;-57
2020/12/14 02:09:07;;;;;;;;;;;22.90;44.30;;;;;;1558813;74;814;-57
2020/12/14 02:11:09;;;;;;;;;;;22.80;44.20;;;;;;1553159;74;1167;-59
2020/12/14 02:13:11;;;;;;;;;;;22.80;44.20;;;;;;1560789;74;701;-58
2020/12/14 02:15:13;;;;;;;;;;;22.80;44.20;;;;;;1571670;74;668;-57
2020/12/14 02:17:18;;;;;;;;;;;22.80;44.30;;;;;;1557805;74;704;-57
2020/12/14 02:19:21;;;;;;;;;;;22.80;44.30;;;;;;1569883;74;664;-57
2020/12/14 02:21:23;;;;;;;;;;;22.80;44.30;;;;;;1557985;74;1178;-57
2020/12/14 02:23:25;;;;;;;;;;;22.80;44.30;;;;;;1555583;74;776;-57
2020/12/14 02:25:27;;;;;;;;;;;22.80;44.40;;;;;;1564546;74;656;-57
2020/12/14 02:27:29;;;;;;;;;;;22.80;44.40;;;;;;1568514;74;1932;-56
2020/12/14 02:29:31;;;;;;;;;;;22.80;44.60;;;;;;1556442;74;789;-56
2020/12/14 02:31:33;;;;;;;;;;;22.80;44.50;;;;;;1563157;74;1161;-56
2020/12/14 02:33:35;;;;;;;;;;;22.80;44.40;;;;;;1562523;74;631;-57
2020/12/14 02:35:37;;;;;;;;;;;22.80;44.40;;;;;;1559517;74;668;-56
2020/12/14 02:37:39;;;;;;;;;;;22.80;44.40;;;;;;1557923;74;773;-56
2020/12/14 02:39:40;;;;;;;;;;;22.90;44.50;;;;;;1560923;74;699;-57
2020/12/14 02:41:42;;;;;;;;;;;22.80;44.40;;;;;;1559003;74;1164;-58
2020/12/14 02:43:44;;;;;;;;;;;22.80;44.50;;;;;;1559401;74;764;-57
2020/12/14 02:45:46;;;;;;;;;;;22.80;44.50;;;;;;1571624;74;670;-57
2020/12/14 02:47:48;;;;;;;;;;;22.80;44.40;;;;;;1556503;74;1968;-59
2020/12/14 02:49:50;;;;;;;;;;;22.80;44.30;;;;;;1552625;74;1159;-58
2020/12/14 02:51:52;;;;;;;;;;;22.70;44.40;;;;;;1564488;74;625;-58
2020/12/14 02:53:53;;;;;;;;;;;22.80;44.40;;;;;;1559080;74;736;-58
2020/12/14 02:55:55;;;;;;;;;;;22.80;44.40;;;;;;1560634;74;653;-57
2020/12/14 02:57:57;;;;;;;;;;;22.80;44.40;;;;;;1562473;74;666;-57
2020/12/14 02:59:59;;;;;;;;;;;22.80;44.40;;;;;;1562096;74;1134;-58
2020/12/14 03:02:01;;;;;;;;;;;22.80;44.40;;;;;;1569293;73;801;-57
2020/12/14 03:04:03;;;;;;;;;;;22.90;44.30;;;;;;1560859;74;1082;-57
2020/12/14 03:06:05;;;;;;;;;;;22.80;44.30;;;;;;1556076;74;740;-56
2020/12/14 03:08:07;;;;;;;;;;;22.80;44.20;;;;;;1560383;74;1975;-58
2020/12/14 03:10:08;;;;;;;;;;;22.80;44.20;;;;;;1564020;74;1145;-58
2020/12/14 03:12:11;;;;;;;;;;;22.80;44.20;;;;;;1572778;74;1068;-58
2020/12/14 03:14:13;;;;;;;;;;;22.80;44.20;;;;;;1558680;74;807;-57
2020/12/14 03:16:15;;;;;;;;;;;22.80;44.20;;;;;;1567455;74;758;-56
2020/12/14 03:18:17;;;;;;;;;;;22.80;44.10;;;;;;1581383;74;640;-58
2020/12/14 03:20:19;;;;;;;;;;;22.80;44.10;;;;;;1567264;74;1146;-57
2020/12/14 03:22:21;;;;;;;;;;;22.80;44.00;;;;;;1576216;74;709;-57
2020/12/14 03:24:23;;;;;;;;;;;22.80;43.90;;;;;;1580198;73;932;-58
2020/12/14 03:26:25;;;;;;;;;;;22.80;44.00;;;;;;1574423;74;723;-57
2020/12/14 03:28:26;;;;;;;;;;;22.80;43.90;;;;;;1588802;74;708;-58
2020/12/14 03:30:28;;;;;;;;;;;22.80;44.00;;;;;;1568855;74;1127;-56
2020/12/14 03:32:30;;;;;;;;;;;22.80;44.10;;;;;;1562236;74;674;-56
2020/12/14 03:34:32;;;;;;;;;;;22.80;44.10;;;;;;1557905;74;672;-57
2020/12/14 03:36:34;;;;;;;;;;;22.80;44.10;;;;;;1559231;74;997;-55
2020/12/14 03:38:36;;;;;;;;;;;22.80;44.00;;;;;;1553237;74;705;-57
2020/12/14 03:40:38;;;;;;;;;;;22.80;44.20;;;;;;1562580;74;1144;-57
2020/12/14 03:42:40;;;;;;;;;;;22.80;44.20;;;;;;1558145;74;734;-55
2020/12/14 03:44:42;;;;;;;;;;;22.80;44.20;;;;;;1556879;74;978;-56
2020/12/14 03:46:44;;;;;;;;;;;22.80;44.30;;;;;;1558514;74;1924;-57
2020/12/14 03:48:47;;;;;;;;;;;22.80;44.40;;;;;;1559252;74;737;-57
2020/12/14 03:50:49;;;;;;;;;;;22.80;44.40;;;;;;1565997;74;1177;-57
2020/12/14 03:52:51;;;;;;;;;;;22.70;44.40;;;;;;1555336;74;690;-56
2020/12/14 03:54:53;;;;;;;;;;;22.80;44.50;;;;;;1554608;74;743;-56
2020/12/14 03:56:58;;;;;;;;;;;22.80;44.50;;;;;;1560255;74;964;-58
2020/12/14 03:59:00;;;;;;;;;;;22.70;44.70;;;;;;1559170;74;940;-57
2020/12/14 04:01:02;;;;;;;;;;;22.70;44.70;;;;;;1558132;74;1159;-58
2020/12/14 04:03:07;;;;;;;;;;;22.80;44.80;;;;;;1553151;74;723;-58
2020/12/14 04:05:08;;;;;;;;;;;22.70;44.80;;;;;;1567775;74;1741;-58
2020/12/14 04:07:10;;;;;;;;;;;22.80;44.90;;;;;;1567813;74;1925;-59
2020/12/14 04:09:11;;;;;;;;;;;22.70;45.00;;;;;;1566561;74;788;-58
2020/12/14 04:11:13;;;;;;;;;;;22.70;45.00;;;;;;1559975;74;1151;-58
2020/12/14 04:13:15;;;;;;;;;;;22.70;45.00;;;;;;1551450;74;685;-57
2020/12/14 04:15:17;;;;;;;;;;;22.80;45.00;;;;;;1554605;74;779;-57
2020/12/14 04:17:19;;;;;;;;;;;22.80;45.00;;;;;;1577604;74;677;-57
2020/12/14 04:19:23;;;;;;;;;;;22.80;45.00;;;;;;1558770;74;716;-58
2020/12/14 04:21:26;;;;;;;;;;;22.80;44.90;;;;;;1554879;74;1155;-59
2020/12/14 04:23:27;;;;;;;;;;;22.80;44.90;;;;;;1561663;74;1014;-56
2020/12/14 04:25:29;;;;;;;;;;;22.70;45.00;;;;;;1553496;74;680;-58
2020/12/14 04:27:31;;;;;;;;;;;22.80;44.90;;;;;;1562569;74;1928;-57
2020/12/14 04:29:33;;;;;;;;;;;22.70;45.00;;;;;;1562918;74;676;-57
2020/12/14 04:31:35;;;;;;;;;;;22.80;44.80;;;;;;1553541;74;1115;-57
2020/12/14 04:33:38;;;;;;;;;;;22.80;45.00;;;;;;1550239;74;701;-57
2020/12/14 04:35:40;;;;;;;;;;;22.70;44.90;;;;;;1564795;74;749;-57
2020/12/14 04:37:41;;;;;;;;;;;22.80;44.70;;;;;;1557118;74;805;-57
2020/12/14 04:39:43;;;;;;;;;;;22.80;44.80;;;;;;1554347;74;1148;-58
2020/12/14 04:41:45;;;;;;;;;;;22.80;44.60;;;;;;1558195;74;781;-58
2020/12/14 04:43:47;;;;;;;;;;;22.80;44.70;;;;;;1563830;74;976;-57
2020/12/14 04:45:49;;;;;;;;;;;22.80;44.70;;;;;;1567663;74;671;-58
2020/12/14 04:47:53;;;;;;;;;;;22.80;44.60;;;;;;1566993;74;1930;-59
2020/12/14 04:49:55;;;;;;;;;;;22.80;44.70;;;;;;1556021;74;1796;-58
2020/12/14 04:51:58;;;;;;;;;;;22.80;44.60;;;;;;1564633;74;757;-59
2020/12/14 04:54:02;;;;;;;;;;;22.80;44.70;;;;;;1560063;74;749;-57
2020/12/14 04:56:04;;;;;;;;;;;22.80;44.60;;;;;;1552181;74;779;-59
2020/12/14 04:58:06;;;;;;;;;;;22.80;44.60;;;;;;1551684;74;709;-57
2020/12/14 05:00:08;;;;;;;;;;;22.80;44.70;;;;;;1558421;74;1297;-58
2020/12/14 05:02:10;;;;;;;;;;;22.80;44.60;;;;;;1567074;74;780;-58
2020/12/14 05:04:12;;;;;;;;;;;22.80;44.70;;;;;;1559439;74;964;-58
2020/12/14 05:06:14;;;;;;;;;;;22.80;44.50;;;;;;1566548;74;727;-59
2020/12/14 05:08:18;;;;;;;;;;;22.80;44.40;;;;;;1559800;74;1931;-57
2020/12/14 05:10:23;;;;;;;;;;;22.80;44.40;;;;;;1561458;73;1796;-58
2020/12/14 05:12:25;;;;;;;;;;;22.90;44.50;;;;;;1557946;74;750;-57
2020/12/14 05:14:28;;;;;;;;;;;22.90;44.60;;;;;;1559037;74;822;-57
2020/12/14 05:16:32;;;;;;;;;;;22.90;44.50;;;;;;1549622;74;654;-56
2020/12/14 05:18:34;;;;;;;;;;;22.90;44.40;;;;;;1558765;74;1313;-57
2020/12/14 05:20:36;;;;;;;;;;;22.90;44.50;;;;;;1565268;74;1187;-58
2020/12/14 05:22:38;;;;;;;;;;;22.90;44.40;;;;;;1557646;74;707;-58
2020/12/14 05:24:40;;;;;;;;;;;22.90;44.60;;;;;;1557872;74;1035;-57
2020/12/14 05:26:42;;;;;;;;;;;22.90;44.80;;;;;;1532548;75;796;-57
2020/12/14 05:28:44;;;;;;;;;;;22.80;44.70;;;;;;1529524;75;1928;-56
2020/12/14 05:30:47;;;;;;;;;;;22.90;44.70;;;;;;1523011;77;1094;-56
2020/12/14 05:32:50;;;;;;;;;;;22.90;44.70;;;;;;1511999;77;721;-57
2020/12/14 05:34:52;;;;;;;;;;;22.90;44.70;;;;;;1526485;75;1835;-58
2020/12/14 05:36:57;;;;;;;;;;;22.90;44.70;;;;;;1528593;75;866;-58
2020/12/14 05:38:59;;;;;;;;;;;23.00;44.90;;;;;;1511066;76;795;-58
2020/12/14 05:41:02;;;;;;;;;;;23.00;44.80;;;;;;1514052;77;1141;-57
2020/12/14 05:43:08;;;;;;;;;;;23.00;44.90;;;;;;1548667;75;733;-57
2020/12/14 05:45:13;;;;;;;;;;;23.00;45.10;;;;;;1524439;76;989;-58
2020/12/14 05:47:22;;;;;;;;;;;22.90;45.00;;;;;;1526504;77;783;-58
2020/12/14 05:49:24;;;;;;;;;;;22.90;45.10;;;;;;1527035;77;1688;-58
2020/12/14 05:51:26;;;;;;;;;;;22.90;45.00;;;;;;1508327;77;1116;-56
2020/12/14 05:53:36;;;;;;;;;;;22.90;44.80;;;;;;1526996;77;801;-59
2020/12/14 05:55:38;;;;;;;;;;;22.90;44.80;;;;;;1525082;77;790;-58
2020/12/14 05:57:40;;;;;;;;;;;23.00;44.60;;;;;;1546890;75;689;-57
2020/12/14 05:59:42;;;;;;;;;;;23.00;44.60;;;;;;1552063;75;656;-58
2020/12/14 06:01:44;;;;;;;;;;;23.00;44.50;;;;;;1553617;75;1140;-57
2020/12/14 06:03:45;;;;;;;;;;;23.00;44.40;;;;;;1545589;75;789;-57
2020/12/14 06:05:47;;;;;;;;;;;23.00;44.40;;;;;;1546539;75;937;-56
2020/12/14 06:07:51;;;;;;;;;;;23.00;44.60;;;;;;1534612;75;1931;-57
2020/12/14 06:09:54;;;;;;;;;;;23.00;44.80;;;;;;1539841;75;1833;-57
2020/12/14 06:11:56;;;;;;;;;;;22.90;44.80;;;;;;1528143;75;1556;-57
2020/12/14 06:13:59;;;;;;;;;;;22.90;45.00;;;;;;1538307;75;772;-58
2020/12/14 06:16:00;;;;;;;;;;;22.90;45.20;;;;;;1543133;75;706;-58
2020/12/14 06:18:03;;;;;;;;;;;22.90;45.10;;;;;;1546591;75;772;-57
2020/12/14 06:20:21;;;;;;;;;;;22.90;45.10;;;;;;1551310;75;1175;-58
2020/12/14 06:22:23;;;;;;;;;;;23.00;45.10;;;;;;1536944;75;1270;-58
2020/12/14 06:24:25;;;;;;;;;;;23.00;45.10;;;;;;1547776;75;1027;-58
2020/12/14 06:26:27;;;;;;;;;;;22.90;45.20;;;;;;1547647;75;721;-57
2020/12/14 06:28:29;;;;;;;;;;;23.00;45.30;;;;;;1538743;75;1933;-58
2020/12/14 06:30:32;;;;;;;;;;;22.90;45.50;;;;;;1543154;75;1150;-58
2020/12/14 06:32:41;;;;;;;;;;;22.90;45.60;;;;;;1534131;75;707;-58
2020/12/14 06:34:42;;;;;;;;;;;22.90;45.50;;;;;;1548077;75;718;-56
2020/12/14 06:36:44;;;;;;;;;;;22.90;45.50;;;;;;1504574;76;813;-57
2020/12/14 06:38:47;;;;;;;;;;;22.90;45.60;;;;;;1510481;77;764;-56
2020/12/14 06:40:55;;;;;;;;;;;23.00;45.30;;;;;;1544302;76;1114;-58
2020/12/14 06:42:57;;;;;;;;;;;22.90;44.70;;;;;;1529999;76;791;-58
2020/12/14 06:45:03;;;;;;;;;;;23.00;44.60;;;;;;1545575;76;989;-57
2020/12/14 06:47:15;;;;;;;;;;;23.00;44.60;;;;;;1535713;76;763;-58
2020/12/14 06:49:19;;;;;;;;;;;23.00;44.30;;;;;;1524025;76;1929;-56
2020/12/14 06:51:21;;;;;;;;;;;23.00;44.10;;;;;;1534042;76;1802;-57
2020/12/14 06:53:40;;;;;;;;;;;22.90;44.10;;;;;;1517489;76;750;-57
2020/12/14 06:55:45;;;;;;;;;;;22.90;44.20;;;;;;1543089;76;700;-57
2020/12/14 06:57:47;;;;;;;;;;;22.90;44.40;;;;;;1535508;76;748;-59
2020/12/14 06:59:52;;;;;;;;;;;22.90;44.30;;;;;;1528076;76;1139;-59
2020/12/14 07:02:00;;;;;;;;;;;22.90;44.40;;;;;;1520237;76;774;-59
2020/12/14 07:04:03;;;;;;;;;;;22.90;44.00;;;;;;1517309;76;748;-57
2020/12/14 07:06:05;;;;;;;;;;;23.00;44.00;;;;;;1521889;76;925;-59
2020/12/14 07:08:07;;;;;;;;;;;22.90;43.90;;;;;;1517262;76;1913;-59
2020/12/14 07:10:09;;;;;;;;;;;23.00;43.70;;;;;;1519159;76;1148;-58
2020/12/14 07:12:13;;;;;;;;;;;22.90;43.90;;;;;;1513360;76;823;-58
2020/12/14 07:14:16;;;;;;;;;;;22.90;44.30;;;;;;1521985;76;750;-59
2020/12/14 07:16:19;;;;;;;;;;;22.90;44.40;;;;;;1522454;76;1791;-57
2020/12/14 07:18:22;;;;;;;;;;;23.00;44.60;;;;;;1515560;76;731;-58
2020/12/14 07:20:24;;;;;;;;;;;22.90;44.70;;;;;;1523392;76;1185;-58
2020/12/14 07:22:35;;;;;;;;;;;23.00;44.70;;;;;;1497287;77;952;-58
2020/12/14 07:24:37;;;;;;;;;;;23.00;45.00;;;;;;1526864;76;736;-57
2020/12/14 07:26:39;;;;;;;;;;;22.90;45.10;;;;;;1522650;76;971;-58
2020/12/14 07:28:42;;;;;;;;;;;22.90;45.40;;;;;;1528227;76;1937;-59
2020/12/14 07:30:44;;;;;;;;;;;22.80;45.40;;;;;;1519452;76;1143;-59
2020/12/14 07:32:49;;;;;;;;;;;22.80;45.40;;;;;;1519891;76;673;-58
2020/12/14 07:34:53;;;;;;;;;;;22.80;45.50;;;;;;1520525;76;900;-58
2020/12/14 07:36:55;;;;;;;;;;;22.80;45.70;;;;;;1518080;76;1304;-59
2020/12/14 07:38:57;;;;;;;;;;;22.80;45.60;;;;;;1518270;76;704;-58
2020/12/14 07:41:06;;;;;;;;;;;22.80;45.40;;;;;;1519043;76;1167;-58
2020/12/14 07:43:08;;;;;;;;;;;22.80;45.40;;;;;;1518470;76;876;-59
2020/12/14 07:45:10;;;;;;;;;;;22.80;45.20;;;;;;1527477;76;995;-58
2020/12/14 07:47:13;;;;;;;;;;;22.80;45.20;;;;;;1518961;76;689;-59
2020/12/14 07:49:20;;;;;;;;;;;22.80;45.20;;;;;;1514102;76;1915;-58
2020/12/14 07:51:19;;;;;;;;;;;22.80;45.10;;;;;;1521203;76;1649;-58
2020/12/14 07:53:21;;;;;;;;;;;22.90;45.20;;;;;;1532678;76;717;-57
2020/12/14 07:55:23;;;;;;;;;;;22.80;45.00;;;;;;1518680;76;674;-56
2020/12/14 07:57:30;;;;;;;;;;;22.80;45.10;;;;;;1538451;76;726;-57
2020/12/14 07:59:30;;;;;;;;;;;22.90;45.00;;;;;;1540710;76;1592;-56
2020/12/14 08:01:31;;;;;;;;;;;22.90;44.80;;;;;;1523733;76;1145;-56
2020/12/14 08:03:33;;;;;;;;;;;22.90;44.70;;;;;;1538659;76;637;-58
2020/12/14 08:05:35;;;;;;;;;;;22.90;44.50;;;;;;1536123;76;1006;-58
2020/12/14 08:07:42;;;;;;;;;;;22.90;44.50;;;;;;1524815;76;699;-57
2020/12/14 08:09:45;;;;;;;;;;;22.90;44.50;;;;;;1537423;76;1935;-56
2020/12/14 08:11:47;;;;;;;;;;;22.90;44.50;;;;;;1533222;76;697;-58
2020/12/14 08:13:51;;;;;;;;;;;22.90;44.50;;;;;;1540791;76;741;-57
2020/12/14 08:15:53;;;;;;;;;;;22.80;44.40;;;;;;1525064;76;710;-58
2020/12/14 08:17:55;;;;;;;;;;;22.80;44.50;;;;;;1511154;77;721;-57
2020/12/14 08:19:56;;;;;;;;;;;22.90;44.50;;;;;;1525899;77;1143;-56
2020/12/14 08:22:01;;;;;;;;;;;22.80;44.40;;;;;;1553205;75;739;-58
2020/12/14 08:24:05;;;;;;;;;;;22.80;44.40;;;;;;1552610;75;707;-57
2020/12/14 08:26:08;;;;;;;;;;;22.80;44.40;;;;;;1529901;77;1724;-56
2020/12/14 08:28:10;;;;;;;;;;;22.80;44.40;;;;;;1528670;76;957;-57
2020/12/14 08:30:12;;;;;;;;;;;22.80;44.20;;;;;;1520323;77;2056;-59
2020/12/14 08:32:14;;;;;;;;;;;22.80;44.30;;;;;;1538058;76;673;-58
2020/12/14 08:34:17;;;;;;;;;;;22.70;44.30;;;;;;1560285;75;790;-59
2020/12/14 08:36:20;;;;;;;;;;;22.70;44.30;;;;;;1544044;75;1538;-57
2020/12/14 08:38:22;;;;;;;;;;;22.80;44.40;;;;;;1527572;77;791;-57
2020/12/14 08:40:23;;;;;;;;;;;22.80;44.40;;;;;;1526809;77;1161;-56
2020/12/14 08:42:30;;;;;;;;;;;22.80;44.40;;;;;;1539345;76;770;-57
2020/12/14 08:44:29;;;;;;;;;;;22.70;44.40;;;;;;1538999;76;1393;-57
2020/12/14 08:46:31;;;;;;;;;;;22.80;44.40;;;;;;1525353;76;982;-57
2020/12/14 08:48:33;;;;;;;;;;;22.80;44.80;;;;;;1533271;76;2200;-57
2020/12/14 08:50:35;;;;;;;;;;;22.80;46.00;;;;;;1499314;77;1189;-57
2020/12/14 08:52:37;;;;;;;;;;;22.80;46.30;;;;;;1516754;76;662;-56
2020/12/14 08:54:39;;;;;;;;;;;22.80;46.20;;;;;;1518108;76;656;-58
2020/12/14 08:56:41;;;;;;;;;;;22.80;46.20;;;;;;1542925;76;641;-57
2020/12/14 08:58:53;;;;;;;;;;;22.90;46.50;;;;;;1527485;76;694;-57
2020/12/14 09:00:54;;;;;;;;;;;22.90;46.00;;;;;;1527540;76;1104;-56
2020/12/14 09:03:00;;;;;;;;;;;23.00;45.80;;;;;;1550732;76;704;-56
2020/12/14 09:05:15;;;;;;;;;;;23.00;45.80;;;;;;1534696;76;710;-57
2020/12/14 09:07:24;;;;;;;;;;;23.00;45.70;;;;;;1517863;76;999;-56
2020/12/14 09:09:38;;;;;;;;;;;23.00;46.30;;;;;;1525496;76;1939;-56
2020/12/14 09:14:06;;;;;;;;;;;23.00;45.70;;;;;;1520974;76;1665;-56
2020/12/14 09:16:08;;;;;;;;;;;23.00;45.20;;;;;;1512661;76;724;-56
2020/12/14 09:18:10;;;;;;;;;;;23.00;45.10;;;;;;1544730;76;704;-56
2020/12/14 09:20:12;;;;;;;;;;;23.10;45.20;;;;;;1534663;76;1222;-57
2020/12/14 09:22:14;;;;;;;;;;;23.10;45.00;;;;;;1539969;76;725;-56
2020/12/14 09:24:17;;;;;;;;;;;23.00;44.90;;;;;;1533189;76;730;-56
2020/12/14 09:26:21;;;;;;;;;;;23.10;44.90;;;;;;1543355;76;1007;-56
2020/12/14 09:28:26;;;;;;;;;;;23.00;44.60;;;;;;1544368;76;774;-56
2020/12/14 09:30:26;;;;;;;;;;;23.10;44.70;;;;;;1536976;76;1903;-58
2020/12/14 09:32:29;;;;;;;;;;;23.10;44.50;;;;;;1523443;76;664;-56
2020/12/14 09:34:30;;;;;;;;;;;23.10;44.50;;;;;;1523800;76;662;-56
2020/12/14 09:36:33;;;;;;;;;;;23.10;44.40;;;;;;1546215;76;684;-55
2020/12/14 09:38:34;;;;;;;;;;;23.10;44.40;;;;;;1531748;76;676;-56
2020/12/14 09:40:36;;;;;;;;;;;23.10;44.50;;;;;;1544070;76;1138;-55
2020/12/14 09:42:38;;;;;;;;;;;23.00;44.50;;;;;;1524047;76;710;-56
2020/12/14 09:44:40;;;;;;;;;;;23.10;44.80;;;;;;1538706;76;685;-56
2020/12/14 09:46:42;;;;;;;;;;;23.00;44.70;;;;;;1547355;76;979;-56
2020/12/14 09:48:44;;;;;;;;;;;23.00;44.90;;;;;;1546204;76;1936;-55
2020/12/14 09:50:46;;;;;;;;;;;23.00;45.00;;;;;;1533973;76;1144;-56
2020/12/14 09:52:47;;;;;;;;;;;23.00;45.10;;;;;;1528986;76;726;-56
2020/12/14 09:54:49;;;;;;;;;;;23.00;45.20;;;;;;1511435;76;688;-55
2020/12/14 09:56:51;;;;;;;;;;;23.00;45.20;;;;;;1512294;76;705;-56
2020/12/14 09:58:53;;;;;;;;;;;23.00;45.40;;;;;;1514409;76;742;-56
2020/12/14 10:00:55;;;;;;;;;;;22.90;45.40;;;;;;1519962;76;1150;-56
2020/12/14 10:02:57;;;;;;;;;;;23.00;45.40;;;;;;1516003;76;717;-55
2020/12/14 10:04:59;;;;;;;;;;;23.00;45.50;;;;;;1515117;76;777;-58
2020/12/14 10:07:01;;;;;;;;;;;22.90;45.50;;;;;;1514303;76;1034;-55
2020/12/14 10:09:03;;;;;;;;;;;23.00;45.60;;;;;;1524103;76;2006;-56
2020/12/14 10:11:05;;;;;;;;;;;22.90;45.60;;;;;;1517933;76;1193;-56
2020/12/14 10:13:07;;;;;;;;;;;22.90;45.60;;;;;;1513336;76;834;-56
2020/12/14 10:15:09;;;;;;;;;;;23.00;45.70;;;;;;1512291;76;642;-56
2020/12/14 10:17:11;;;;;;;;;;;22.90;45.70;;;;;;1517891;76;703;-57
2020/12/14 10:19:13;;;;;;;;;;;23.00;45.70;;;;;;1518833;76;687;-56
2020/12/14 10:21:15;;;;;;;;;;;22.90;45.70;;;;;;1541206;76;1190;-55
2020/12/14 10:23:17;;;;;;;;;;;22.90;45.70;;;;;;1525731;76;775;-56
2020/12/14 10:25:19;;;;;;;;;;;23.00;45.70;;;;;;1532687;76;709;-56
2020/12/14 10:27:21;;;;;;;;;;;23.00;45.70;;;;;;1517947;76;1231;-55
2020/12/14 10:29:23;;;;;;;;;;;23.00;45.60;;;;;;1533002;76;1917;-58
2020/12/14 10:31:25;;;;;;;;;;;23.00;45.50;;;;;;1518927;76;1127;-56
2020/12/14 10:33:29;;;;;;;;;;;23.10;45.60;;;;;;1519008;76;692;-57
2020/12/14 10:35:30;;;;;;;;;;;23.00;45.50;;;;;;1515959;76;1699;-55
2020/12/14 10:37:32;;;;;;;;;;;23.10;45.60;;;;;;1532223;76;755;-55
2020/12/14 10:39:34;;;;;;;;;;;23.10;45.60;;;;;;1534009;76;769;-55
2020/12/14 10:41:36;;;;;;;;;;;23.00;45.50;;;;;;1524775;76;1238;-57
2020/12/14 10:43:38;;;;;;;;;;;23.10;45.60;;;;;;1530902;76;706;-56
2020/12/14 10:45:40;;;;;;;;;;;23.10;45.60;;;;;;1529614;76;714;-55
2020/12/14 10:47:41;;;;;;;;;;;23.10;45.60;;;;;;1526795;76;1018;-56
2020/12/14 10:49:43;;;;;;;;;;;23.10;45.50;;;;;;1508773;77;1939;-57
2020/12/14 10:51:47;;;;;;;;;;;23.20;45.40;;;;;;1520826;76;677;-57
2020/12/14 10:53:49;;;;;;;;;;;23.10;45.40;;;;;;1509768;76;680;-57
2020/12/14 10:55:51;;;;;;;;;;;23.10;45.40;;;;;;1513533;76;731;-57
2020/12/14 10:57:53;;;;;;;;;;;23.20;45.40;;;;;;1517510;76;677;-55
2020/12/14 11:00:03;;;;;;;;;;;23.20;45.30;;;;;;1525259;76;1168;-55
2020/12/14 11:02:00;;;;;;;;;;;23.10;45.40;;;;;;1519234;76;1044;-57
2020/12/14 11:04:02;;;;;;;;;;;23.20;45.30;;;;;;1513687;76;700;-56
2020/12/14 11:06:04;;;;;;;;;;;23.20;45.20;;;;;;1517616;76;792;-56
2020/12/14 11:08:06;;;;;;;;;;;23.20;45.20;;;;;;1511446;76;1143;-57
2020/12/14 11:10:09;;;;;;;;;;;23.20;45.20;;;;;;1520576;76;1935;-58
2020/12/14 11:12:10;;;;;;;;;;;23.10;45.20;;;;;;1521150;76;685;-57
2020/12/14 11:14:12;;;;;;;;;;;23.20;45.30;;;;;;1514947;76;763;-57
2020/12/14 11:16:14;;;;;;;;;;;23.10;45.20;;;;;;1523985;76;731;-57
2020/12/14 11:18:16;;;;;;;;;;;23.10;45.30;;;;;;1517672;76;716;-58
2020/12/14 11:20:19;;;;;;;;;;;23.10;45.20;;;;;;1526144;76;1193;-57
2020/12/14 11:22:21;;;;;;;;;;;23.20;45.20;;;;;;1524475;76;685;-56
2020/12/14 11:24:23;;;;;;;;;;;23.10;45.10;;;;;;1518396;76;753;-56
2020/12/14 11:26:25;;;;;;;;;;;23.10;45.20;;;;;;1534852;76;791;-56
2020/12/14 11:28:27;;;;;;;;;;;23.10;45.20;;;;;;1515073;76;996;-58
2020/12/14 11:30:29;;;;;;;;;;;23.10;45.20;;;;;;1519278;76;1933;-56
2020/12/14 11:32:31;;;;;;;;;;;23.10;45.20;;;;;;1515317;76;683;-57
2020/12/14 11:34:33;;;;;;;;;;;23.20;45.10;;;;;;1517481;76;740;-55
2020/12/14 11:36:35;;;;;;;;;;;23.20;45.20;;;;;;1515944;76;701;-55
2020/12/14 11:38:37;;;;;;;;;;;23.20;45.20;;;;;;1533840;76;774;-56
2020/12/14 11:40:39;;;;;;;;;;;23.20;45.20;;;;;;1517490;76;1168;-56
2020/12/14 11:42:40;;;;;;;;;;;23.10;45.30;;;;;;1532908;76;792;-56
2020/12/14 11:44:42;;;;;;;;;;;23.20;45.30;;;;;;1537655;76;735;-57
2020/12/14 11:46:44;;;;;;;;;;;23.10;45.20;;;;;;1530172;76;751;-57
2020/12/14 11:48:46;;;;;;;;;;;23.20;45.30;;;;;;1529077;76;999;-56
2020/12/14 11:50:49;;;;;;;;;;;23.20;45.20;;;;;;1523313;76;1942;-55
2020/12/14 11:52:51;;;;;;;;;;;23.20;45.20;;;;;;1519263;76;688;-55
2020/12/14 11:54:53;;;;;;;;;;;23.20;45.20;;;;;;1522336;76;713;-57
2020/12/14 11:56:55;;;;;;;;;;;23.20;45.20;;;;;;1518163;76;730;-57
2020/12/14 11:58:57;;;;;;;;;;;23.20;45.30;;;;;;1520038;76;634;-56
2020/12/14 12:00:58;;;;;;;;;;;23.20;45.40;;;;;;1518936;76;1153;-55
2020/12/14 12:03:00;;;;;;;;;;;23.20;45.40;;;;;;1516826;76;709;-56
2020/12/14 12:05:02;;;;;;;;;;;23.20;45.50;;;;;;1520559;76;685;-56
2020/12/14 12:07:05;;;;;;;;;;;23.20;45.50;;;;;;1512058;76;1027;-56
2020/12/14 12:09:07;;;;;;;;;;;23.20;45.50;;;;;;1513736;76;713;-56
2020/12/14 12:11:10;;;;;;;;;;;23.20;45.50;;;;;;1522532;76;1993;-55
2020/12/14 12:13:12;;;;;;;;;;;23.10;45.50;;;;;;1517881;76;1658;-56